createdAt,value
2023-04-06T00:00:19.646Z,25.52
2023-04-06T00:02:19.784Z,25.57
2023-04-06T00:04:19.656Z,25.58
2023-04-06T00:06:19.711Z,25.58
2023-04-06T00:08:19.792Z,25.52
2023-04-06T00:10:19.686Z,25.52
2023-04-06T00:12:19.590Z,25.52
2023-04-06T00:14:19.772Z,25.62
2023-04-06T00:16:19.644Z,25.53
2023-04-06T00:18:19.703Z,25.52
2023-04-06T00:20:19.631Z,25.54
2023-04-06T00:22:19.654Z,25.64
2023-04-06T00:24:19.560Z,25.54
2023-04-06T00:26:19.702Z,25.52
2023-04-06T00:28:19.706Z,25.53
2023-04-06T00:30:19.636Z,25.56
2023-04-06T00:32:19.760Z,25.60
2023-04-06T00:34:19.706Z,25.52
2023-04-06T00:36:19.788Z,25.56
2023-04-06T00:38:19.681Z,25.50
2023-04-06T00:40:19.664Z,25.56
2023-04-06T00:42:19.690Z,25.58
2023-04-06T00:44:19.662Z,25.65
2023-04-06T00:46:19.762Z,25.54
2023-04-06T00:48:19.724Z,25.52
2023-04-06T00:50:19.720Z,25.63
2023-04-06T00:52:19.696Z,25.58
2023-04-06T00:54:19.776Z,25.52
2023-04-06T00:56:19.658Z,25.52
2023-04-06T00:58:19.690Z,25.52
2023-04-06T01:00:19.732Z,25.58
2023-04-06T01:02:19.760Z,25.55
2023-04-06T01:04:19.747Z,25.54
2023-04-06T01:06:19.767Z,25.53
2023-04-06T01:08:19.696Z,25.55
2023-04-06T01:10:19.748Z,25.53
2023-04-06T01:12:19.712Z,25.55
2023-04-06T01:14:19.741Z,25.57
2023-04-06T01:16:19.746Z,25.54
2023-04-06T01:18:19.743Z,25.53
2023-04-06T01:20:19.674Z,25.61
2023-04-06T01:22:19.748Z,25.53
2023-04-06T01:24:19.799Z,25.56
2023-04-06T01:26:19.750Z,25.64
2023-04-06T01:28:19.759Z,25.54
2023-04-06T01:30:19.775Z,25.54
2023-04-06T01:32:19.745Z,25.56
2023-04-06T01:34:19.724Z,25.52
2023-04-06T01:36:19.764Z,25.58
2023-04-06T01:38:19.617Z,25.56
2023-04-06T01:40:19.717Z,25.53
2023-04-06T01:42:19.719Z,25.61
2023-04-06T01:44:19.786Z,25.52
2023-04-06T01:46:19.858Z,25.61
2023-04-06T01:48:19.686Z,25.52
2023-04-06T01:50:19.739Z,25.54
2023-04-06T01:52:19.778Z,25.52
2023-04-06T01:54:19.697Z,25.52
2023-04-06T01:56:19.870Z,25.52
2023-04-06T01:58:19.776Z,25.52
2023-04-06T02:00:19.841Z,24.80
2023-04-06T02:02:19.868Z,24.44
2023-04-06T02:04:19.694Z,24.20
2023-04-06T02:06:19.776Z,24.08
2023-04-06T02:08:19.775Z,23.95
2023-04-06T02:10:19.668Z,23.81
2023-04-06T02:12:19.835Z,23.81
2023-04-06T02:14:19.744Z,23.65
2023-04-06T02:16:19.910Z,23.73
2023-04-06T02:18:19.870Z,23.69
2023-04-06T02:20:19.814Z,23.66
2023-04-06T02:22:19.808Z,23.63
2023-04-06T02:24:19.793Z,23.72
2023-04-06T02:26:19.853Z,23.55
2023-04-06T02:28:19.758Z,23.53
2023-04-06T02:30:19.764Z,23.56
2023-04-06T02:32:19.768Z,23.66
2023-04-06T02:34:19.692Z,23.61
2023-04-06T02:36:19.770Z,23.57
2023-04-06T02:38:19.808Z,23.59
2023-04-06T02:40:19.764Z,23.57
2023-04-06T02:42:19.747Z,23.65
2023-04-06T02:44:19.856Z,23.58
2023-04-06T02:46:19.777Z,23.61
2023-04-06T02:48:19.848Z,23.56
2023-04-06T02:50:19.779Z,23.63
2023-04-06T02:52:19.874Z,23.57
2023-04-06T02:54:19.839Z,23.53
2023-04-06T02:56:19.870Z,23.59
2023-04-06T02:58:19.728Z,23.48
2023-04-06T03:00:19.883Z,23.59
2023-04-06T03:02:19.836Z,23.59
2023-04-06T03:04:19.910Z,23.55
2023-04-06T03:06:19.821Z,23.53
2023-04-06T03:08:19.884Z,23.52
2023-04-06T03:10:19.859Z,23.53
2023-04-06T03:12:19.925Z,23.53
2023-04-06T03:14:19.897Z,23.52
2023-04-06T03:16:19.855Z,23.59
2023-04-06T03:18:19.920Z,23.56
2023-04-06T03:20:19.916Z,23.53
2023-04-06T03:22:19.908Z,23.49
2023-04-06T03:24:19.929Z,23.59
2023-04-06T03:26:19.946Z,23.53
2023-04-06T03:28:19.838Z,23.53
2023-04-06T03:30:19.825Z,23.50
2023-04-06T03:32:19.859Z,23.42
2023-04-06T03:34:19.943Z,23.11
2023-04-06T03:36:19.811Z,23.40
2023-04-06T03:38:19.847Z,23.41
2023-04-06T03:40:19.807Z,23.42
2023-04-06T03:42:19.891Z,23.42
2023-04-06T03:44:19.874Z,23.36
2023-04-06T03:46:19.878Z,23.47
2023-04-06T03:48:19.831Z,23.37
2023-04-06T03:50:19.969Z,23.40
2023-04-06T03:52:19.867Z,23.43
2023-04-06T03:54:19.898Z,23.34
2023-04-06T03:56:19.903Z,23.39
2023-04-06T03:58:19.793Z,23.35
2023-04-06T04:00:19.910Z,23.28
2023-04-06T04:02:20.002Z,23.20
2023-04-06T04:04:19.902Z,23.11
2023-04-06T04:06:19.930Z,23.17
2023-04-06T04:08:19.892Z,23.16
2023-04-06T04:10:19.962Z,23.17
2023-04-06T04:12:19.916Z,23.12
2023-04-06T04:14:19.880Z,23.16
2023-04-06T04:16:19.975Z,23.06
2023-04-06T04:18:19.915Z,23.04
2023-04-06T04:20:19.862Z,23.04
2023-04-06T04:22:19.931Z,23.16
2023-04-06T04:24:19.908Z,23.01
2023-04-06T04:26:19.968Z,23.08
2023-04-06T04:28:20.042Z,23.08
2023-04-06T04:30:19.800Z,23.22
2023-04-06T04:32:20.039Z,23.14
2023-04-06T04:34:19.935Z,23.12
2023-04-06T04:36:19.854Z,23.16
2023-04-06T04:38:19.974Z,22.99
2023-04-06T04:40:19.921Z,23.13
2023-04-06T04:42:19.955Z,23.24
2023-04-06T04:44:19.866Z,23.22
2023-04-06T04:46:19.972Z,23.25
2023-04-06T04:48:19.970Z,23.22
2023-04-06T04:50:20.015Z,23.06
2023-04-06T04:52:19.938Z,23.13
2023-04-06T04:54:19.966Z,23.06
2023-04-06T04:56:19.918Z,23.12
2023-04-06T04:58:19.900Z,23.24
2023-04-06T05:00:19.967Z,23.16
2023-04-06T05:02:20.064Z,23.20
2023-04-06T05:04:20.003Z,23.25
2023-04-06T05:06:19.995Z,23.18
2023-04-06T05:08:20.004Z,23.15
2023-04-06T05:10:19.970Z,23.19
2023-04-06T05:12:19.940Z,23.17
2023-04-06T05:14:20.006Z,23.25
2023-04-06T05:16:20.026Z,23.26
2023-04-06T05:18:20.030Z,23.26
2023-04-06T05:20:20.014Z,23.27
2023-04-06T05:22:20.047Z,23.31
2023-04-06T05:24:20.003Z,23.33
2023-04-06T05:26:20.106Z,23.27
2023-04-06T05:28:19.995Z,23.29
2023-04-06T05:30:20.008Z,23.36
2023-04-06T05:32:19.963Z,23.38
2023-04-06T05:34:20.008Z,23.27
2023-04-06T05:36:20.007Z,23.31
2023-04-06T05:38:20.073Z,23.28
2023-04-06T05:40:20.022Z,23.30
2023-04-06T05:42:20.041Z,23.30
2023-04-06T05:44:20.026Z,23.28
2023-04-06T05:46:20.126Z,23.33
2023-04-06T05:48:20.028Z,23.27
2023-04-06T05:50:19.891Z,23.22
2023-04-06T05:52:20.018Z,23.10
2023-04-06T05:54:19.981Z,23.13
2023-04-06T05:56:19.980Z,23.15
2023-04-06T05:58:20.077Z,23.11
2023-04-06T06:00:19.986Z,23.18
2023-04-06T06:02:20.023Z,23.19
2023-04-06T06:04:20.059Z,23.42
2023-04-06T06:06:19.957Z,23.18
2023-04-06T06:08:20.048Z,23.30
2023-04-06T06:10:19.935Z,23.39
2023-04-06T06:12:20.065Z,23.48
2023-04-06T06:14:19.960Z,23.62
2023-04-06T06:16:20.069Z,23.66
2023-04-06T06:18:20.013Z,23.79
2023-04-06T06:20:19.981Z,23.86
2023-04-06T06:22:20.103Z,23.87
2023-04-06T06:24:20.009Z,24.01
2023-04-06T06:26:20.025Z,24.09
2023-04-06T06:28:20.003Z,24.25
2023-04-06T06:30:22.381Z,24.38
2023-04-06T06:32:20.019Z,24.46
2023-04-06T06:34:20.104Z,24.51
2023-04-06T06:36:20.050Z,24.61
2023-04-06T06:38:22.801Z,24.59
2023-04-06T06:40:20.092Z,24.82
2023-04-06T06:42:20.087Z,24.75
2023-04-06T06:44:20.053Z,24.82
2023-04-06T06:46:20.120Z,24.88
2023-04-06T06:48:20.057Z,24.87
2023-04-06T06:50:20.078Z,24.93
2023-04-06T06:52:20.438Z,24.94
2023-04-06T06:54:20.105Z,24.93
2023-04-06T06:56:20.046Z,25.09
2023-04-06T06:58:20.093Z,25.11
2023-04-06T07:00:20.057Z,25.23
2023-04-06T07:02:20.589Z,25.21
2023-04-06T07:04:20.227Z,25.26
2023-04-06T07:06:20.081Z,25.33
2023-04-06T07:08:20.095Z,25.28
2023-04-06T07:10:20.096Z,25.37
2023-04-06T07:12:20.182Z,25.37
2023-04-06T07:14:20.094Z,25.46
2023-04-06T07:16:20.111Z,25.63
2023-04-06T07:18:20.499Z,25.74
2023-04-06T07:20:20.084Z,25.80
2023-04-06T07:22:20.099Z,25.97
2023-04-06T07:24:20.047Z,26.10
2023-04-06T07:26:20.171Z,26.30
2023-04-06T07:28:20.133Z,26.46
2023-04-06T07:30:20.050Z,25.21
2023-04-06T07:32:20.148Z,26.50
2023-04-06T07:34:20.075Z,25.05
2023-04-06T07:36:20.129Z,24.99
2023-04-06T07:38:20.235Z,24.95
2023-04-06T07:40:20.084Z,24.94
2023-04-06T07:42:20.080Z,24.90
2023-04-06T07:44:20.147Z,24.99
2023-04-06T07:46:20.052Z,25.07
2023-04-06T07:48:20.182Z,25.03
2023-04-06T07:50:20.101Z,25.10
2023-04-06T07:52:20.101Z,26.24
2023-04-06T07:54:20.188Z,26.93
2023-04-06T07:56:20.182Z,25.38
2023-04-06T07:58:20.175Z,26.65
2023-04-06T08:00:20.243Z,25.04
2023-04-06T08:02:20.213Z,25.12
2023-04-06T08:04:20.156Z,25.23
2023-04-06T08:06:20.125Z,25.17
2023-04-06T08:08:20.029Z,25.15
2023-04-06T08:10:20.198Z,25.13
2023-04-06T08:12:20.209Z,25.15
2023-04-06T08:14:20.112Z,25.14
2023-04-06T08:16:20.272Z,24.96
2023-04-06T08:18:20.193Z,24.86
2023-04-06T08:20:20.195Z,24.98
2023-04-06T08:22:20.220Z,25.05
2023-04-06T08:24:20.165Z,25.01
2023-04-06T08:26:20.171Z,24.99
2023-04-06T08:28:20.113Z,25.02
2023-04-06T08:30:20.274Z,24.98
2023-04-06T08:32:20.209Z,26.79
2023-04-06T08:34:20.177Z,26.89
2023-04-06T08:36:20.313Z,25.11
2023-04-06T08:38:20.080Z,26.93
2023-04-06T08:40:20.167Z,24.96
2023-04-06T08:42:20.315Z,25.05
2023-04-06T08:44:20.138Z,25.03
2023-04-06T08:46:20.217Z,25.12
2023-04-06T08:48:20.200Z,25.10
2023-04-06T08:50:20.227Z,25.12
2023-04-06T08:52:20.104Z,25.09
2023-04-06T08:54:20.126Z,26.92
2023-04-06T08:56:20.167Z,25.10
2023-04-06T08:58:35.145Z,26.89
2023-04-06T09:00:20.205Z,25.14
2023-04-06T09:02:20.246Z,25.19
2023-04-06T09:04:20.788Z,25.54
2023-04-06T09:06:20.216Z,25.52
2023-04-06T09:08:20.312Z,25.50
2023-04-06T09:10:20.319Z,25.43
2023-04-06T09:12:20.212Z,25.43
2023-04-06T09:14:20.203Z,25.09
2023-04-06T09:16:20.313Z,25.13
2023-04-06T09:18:20.111Z,26.79
2023-04-06T09:20:20.311Z,26.38
2023-04-06T09:22:20.228Z,25.21
2023-04-06T09:24:20.244Z,25.51
2023-04-06T09:26:20.286Z,25.04
2023-04-06T09:28:20.204Z,25.08
2023-04-06T09:30:20.319Z,25.06
2023-04-06T09:32:20.357Z,25.09
2023-04-06T09:34:20.287Z,25.06
2023-04-06T09:36:20.328Z,25.09
2023-04-06T09:38:20.229Z,26.44
2023-04-06T09:40:20.376Z,26.82
2023-04-06T09:42:20.331Z,25.04
2023-04-06T09:44:20.248Z,26.93
2023-04-06T09:46:20.362Z,25.17
2023-04-06T09:48:20.305Z,25.10
2023-04-06T09:50:20.432Z,25.11
2023-04-06T09:52:20.263Z,25.06
2023-04-06T09:54:20.270Z,25.04
2023-04-06T09:56:20.259Z,25.29
2023-04-06T09:58:20.357Z,25.07
2023-04-06T10:00:20.285Z,26.89
2023-04-06T10:02:20.345Z,25.14
2023-04-06T10:04:20.320Z,26.70
2023-04-06T10:06:20.276Z,25.23
2023-04-06T10:08:20.192Z,25.09
2023-04-06T10:10:20.280Z,25.09
2023-04-06T10:12:20.266Z,25.04
2023-04-06T10:14:20.302Z,25.10
2023-04-06T10:16:20.225Z,25.21
2023-04-06T10:18:20.289Z,25.31
2023-04-06T10:20:20.292Z,26.79
2023-04-06T10:22:20.262Z,25.06
2023-04-06T10:24:20.348Z,25.03
2023-04-06T10:26:20.352Z,24.96
2023-04-06T10:28:20.297Z,25.12
2023-04-06T10:30:20.318Z,25.20
2023-04-06T10:32:20.326Z,28.61
2023-04-06T10:34:20.346Z,26.79
2023-04-06T10:36:20.376Z,26.93
2023-04-06T10:38:20.325Z,25.04
2023-04-06T10:40:20.282Z,24.99
2023-04-06T10:42:20.256Z,25.06
2023-04-06T10:44:20.329Z,25.09
2023-04-06T10:46:20.435Z,25.06
2023-04-06T10:48:20.410Z,26.92
2023-04-06T10:50:20.315Z,26.66
2023-04-06T10:52:20.297Z,24.98
2023-04-06T10:54:20.253Z,25.24
2023-04-06T10:56:20.399Z,25.25
2023-04-06T10:58:20.330Z,25.32
2023-04-06T11:00:20.345Z,25.44
2023-04-06T11:02:20.416Z,25.40
2023-04-06T11:04:20.277Z,24.98
2023-04-06T11:06:20.312Z,26.88
2023-04-06T11:08:20.341Z,25.20
2023-04-06T11:10:21.014Z,25.47
2023-04-06T11:12:20.171Z,25.35
2023-04-06T11:14:20.429Z,25.42
2023-04-06T11:16:20.391Z,25.42
2023-04-06T11:18:20.275Z,25.09
2023-04-06T11:20:20.433Z,26.93
2023-04-06T11:22:20.358Z,25.11
2023-04-06T11:24:20.504Z,25.32
2023-04-06T11:26:20.275Z,25.34
2023-04-06T11:28:20.394Z,25.25
2023-04-06T11:30:20.356Z,25.42
2023-04-06T11:32:20.381Z,25.10
2023-04-06T11:34:20.447Z,24.95
2023-04-06T11:36:20.425Z,25.16
2023-04-06T11:38:20.472Z,25.23
2023-04-06T11:40:20.408Z,25.47
2023-04-06T11:42:20.366Z,25.42
2023-04-06T11:44:20.408Z,25.50
2023-04-06T11:46:20.514Z,26.79
2023-04-06T11:48:20.573Z,24.99
2023-04-06T11:50:20.473Z,26.90
2023-04-06T11:52:20.476Z,25.01
2023-04-06T11:54:20.387Z,26.92
2023-04-06T11:56:20.411Z,26.93
2023-04-06T11:58:20.380Z,24.90
2023-04-06T12:00:20.344Z,25.01
2023-04-06T12:02:20.480Z,25.09
2023-04-06T12:04:20.412Z,25.06
2023-04-06T12:06:20.416Z,26.02
2023-04-06T12:08:20.393Z,25.09
2023-04-06T12:10:20.409Z,26.91
2023-04-06T12:12:20.443Z,25.13
2023-04-06T12:14:20.462Z,24.97
2023-04-06T12:16:20.428Z,24.99
2023-04-06T12:18:20.400Z,24.99
2023-04-06T12:20:26.449Z,25.05
2023-04-06T12:22:20.468Z,25.08
2023-04-06T12:24:20.342Z,26.94
2023-04-06T12:26:20.418Z,26.82
2023-04-06T12:28:20.442Z,24.95
2023-04-06T12:30:20.418Z,25.05
2023-04-06T12:32:20.354Z,25.15
2023-04-06T12:34:20.413Z,24.97
2023-04-06T12:36:20.482Z,24.98
2023-04-06T12:38:20.468Z,24.95
2023-04-06T12:40:20.373Z,25.09
2023-04-06T12:42:20.401Z,26.92
2023-04-06T12:44:20.456Z,26.93
2023-04-06T12:46:20.407Z,24.98
2023-04-06T12:48:20.651Z,24.93
2023-04-06T12:50:20.436Z,24.95
2023-04-06T12:52:20.408Z,25.06
2023-04-06T12:54:20.505Z,25.06
2023-04-06T12:56:20.494Z,25.08
2023-04-06T12:58:20.391Z,25.05
2023-04-06T13:00:20.492Z,25.11
2023-04-06T13:02:20.542Z,26.96
2023-04-06T13:04:20.488Z,25.03
2023-04-06T13:06:20.450Z,25.04
2023-04-06T13:08:20.418Z,25.04
2023-04-06T13:10:20.378Z,24.98
2023-04-06T13:12:20.488Z,27.03
2023-04-06T13:14:20.469Z,26.84
2023-04-06T13:16:20.517Z,25.12
2023-04-06T13:18:20.499Z,25.42
2023-04-06T13:20:20.496Z,25.42
2023-04-06T13:22:20.461Z,25.52
2023-04-06T13:24:20.514Z,25.42
2023-04-06T13:26:20.453Z,25.06
2023-04-06T13:28:20.542Z,25.09
2023-04-06T13:30:20.505Z,26.93
2023-04-06T13:32:20.493Z,25.91
2023-04-06T13:34:20.463Z,25.05
2023-04-06T13:36:20.501Z,24.98
2023-04-06T13:38:20.522Z,25.04
2023-04-06T13:40:20.506Z,25.10
2023-04-06T13:42:20.424Z,25.15
2023-04-06T13:44:20.452Z,24.98
2023-04-06T13:46:20.607Z,25.10
2023-04-06T13:48:20.514Z,26.91
2023-04-06T13:50:20.574Z,24.99
2023-04-06T13:52:20.538Z,25.01
2023-04-06T13:54:20.490Z,25.01
2023-04-06T13:56:20.478Z,24.99
2023-04-06T13:58:20.549Z,26.93
2023-04-06T14:00:20.632Z,26.91
2023-04-06T14:02:20.678Z,25.10
2023-04-06T14:04:20.826Z,25.03
2023-04-06T14:06:30.507Z,25.10
2023-04-06T14:08:20.506Z,25.09
2023-04-06T14:10:20.542Z,25.18
2023-04-06T14:12:20.504Z,24.87
2023-04-06T14:14:20.449Z,25.06
2023-04-06T14:16:20.740Z,26.73
2023-04-06T14:18:20.584Z,27.05
2023-04-06T14:20:20.563Z,25.52
2023-04-06T14:22:20.574Z,25.33
2023-04-06T14:24:20.476Z,25.44
2023-04-06T14:26:20.558Z,25.39
2023-04-06T14:28:20.644Z,25.40
2023-04-06T14:30:20.551Z,25.37
2023-04-06T14:32:20.552Z,25.35
2023-04-06T14:34:20.496Z,25.37
2023-04-06T14:36:20.522Z,25.17
2023-04-06T14:38:20.597Z,25.39
2023-04-06T14:40:20.599Z,25.01
2023-04-06T14:42:20.586Z,25.09
2023-04-06T14:44:20.640Z,25.17
2023-04-06T14:46:20.657Z,25.20
2023-04-06T14:48:20.543Z,25.15
2023-04-06T14:50:20.572Z,25.09
2023-04-06T14:52:20.596Z,25.52
2023-04-06T14:54:20.576Z,25.51
2023-04-06T14:56:20.576Z,25.51
2023-04-06T14:58:20.565Z,25.47
2023-04-06T15:00:20.593Z,25.33
2023-04-06T15:02:21.069Z,25.08
2023-04-06T15:04:20.671Z,25.07
2023-04-06T15:06:20.647Z,25.09
2023-04-06T15:08:20.609Z,25.10
2023-04-06T15:10:20.600Z,25.13
2023-04-06T15:12:20.615Z,25.22
2023-04-06T15:14:21.722Z,25.20
2023-04-06T15:16:20.656Z,25.37
2023-04-06T15:18:20.573Z,25.29
2023-04-06T15:20:20.550Z,25.51
2023-04-06T15:22:20.580Z,25.37
2023-04-06T15:24:20.655Z,25.45
2023-04-06T15:26:20.672Z,25.40
2023-04-06T15:28:20.622Z,25.45
2023-04-06T15:30:20.607Z,25.04
2023-04-06T15:32:20.665Z,25.47
2023-04-06T15:34:20.601Z,25.39
2023-04-06T15:36:20.604Z,25.36
2023-04-06T15:38:20.584Z,25.29
2023-04-06T15:40:20.679Z,25.44
2023-04-06T15:42:20.601Z,25.31
2023-04-06T15:44:20.476Z,25.37
2023-04-06T15:46:20.672Z,25.26
2023-04-06T15:48:20.788Z,25.25
2023-04-06T15:50:20.699Z,25.23
2023-04-06T15:52:20.667Z,25.12
2023-04-06T15:54:20.645Z,25.46
2023-04-06T15:56:20.652Z,25.43
2023-04-06T15:58:20.620Z,25.91
2023-04-06T16:00:20.620Z,25.57
2023-04-06T16:02:20.610Z,26.13
2023-04-06T16:04:20.749Z,25.04
2023-04-06T16:06:20.641Z,25.09
2023-04-06T16:08:20.694Z,25.07
2023-04-06T16:10:20.649Z,25.17
2023-04-06T16:12:20.716Z,25.13
2023-04-06T16:14:20.635Z,25.19
2023-04-06T16:16:20.722Z,25.00
2023-04-06T16:18:20.663Z,25.12
2023-04-06T16:20:20.666Z,25.11
2023-04-06T16:22:20.585Z,25.07
2023-04-06T16:24:20.655Z,25.18
2023-04-06T16:26:20.672Z,25.09
2023-04-06T16:28:20.708Z,25.07
2023-04-06T16:30:20.673Z,25.04
2023-04-06T16:32:20.729Z,25.12
2023-04-06T16:34:20.586Z,25.05
2023-04-06T16:36:20.622Z,25.00
2023-04-06T16:38:20.597Z,25.05
2023-04-06T16:40:20.750Z,24.89
2023-04-06T16:42:20.719Z,24.74
2023-04-06T16:44:20.758Z,24.64
2023-04-06T16:46:20.827Z,24.60
2023-04-06T16:48:20.681Z,24.55
2023-04-06T16:50:20.763Z,24.46
2023-04-06T16:52:20.742Z,24.39
2023-04-06T16:54:20.634Z,24.26
2023-04-06T16:56:20.686Z,24.25
2023-04-06T16:58:20.646Z,24.20
2023-04-06T17:00:20.679Z,24.10
2023-04-06T17:02:20.729Z,24.05
2023-04-06T17:04:20.800Z,24.02
2023-04-06T17:06:20.719Z,23.96
2023-04-06T17:08:20.717Z,23.98
2023-04-06T17:10:28.590Z,23.89
2023-04-06T17:12:20.712Z,23.84
2023-04-06T17:14:20.655Z,23.84
2023-04-06T17:16:20.696Z,23.81
2023-04-06T17:18:20.631Z,23.73
2023-04-06T17:20:20.715Z,23.81
2023-04-06T17:22:20.933Z,23.81
2023-04-06T17:24:20.732Z,23.77
2023-04-06T17:26:20.737Z,23.72
2023-04-06T17:28:20.771Z,23.73
2023-04-06T17:30:20.610Z,23.73
2023-04-06T17:32:20.768Z,23.65
2023-04-06T17:34:20.729Z,23.63
2023-04-06T17:36:22.020Z,23.72
2023-04-06T17:38:20.717Z,23.63
2023-04-06T17:40:20.741Z,23.70
2023-04-06T17:42:20.783Z,23.66
2023-04-06T17:44:20.788Z,23.72
2023-04-06T17:46:20.711Z,23.65
2023-04-06T17:48:20.801Z,23.61
2023-04-06T17:50:20.691Z,23.57
2023-04-06T17:52:20.702Z,23.55
2023-04-06T17:54:20.698Z,23.61
2023-04-06T17:56:20.792Z,23.57
2023-04-06T17:58:20.749Z,23.57
2023-04-06T18:00:20.848Z,23.73
2023-04-06T18:02:20.828Z,23.82
2023-04-06T18:04:20.729Z,23.80
2023-04-06T18:06:21.092Z,23.81
2023-04-06T18:08:20.750Z,23.81
2023-04-06T18:10:20.748Z,23.73
2023-04-06T18:12:20.838Z,23.96
2023-04-06T18:14:20.772Z,23.81
2023-04-06T18:16:20.768Z,23.81
2023-04-06T18:18:20.826Z,23.83
2023-04-06T18:20:20.774Z,23.85
2023-04-06T18:22:20.794Z,23.93
2023-04-06T18:24:37.270Z,27.06
2023-04-06T18:26:20.824Z,27.22
2023-04-06T18:28:20.845Z,27.18
2023-04-06T18:30:20.804Z,25.77
2023-04-06T18:32:20.801Z,25.55
2023-04-06T18:34:20.850Z,25.58
2023-04-06T18:36:20.841Z,25.60
2023-04-06T18:38:20.805Z,25.54
2023-04-06T18:40:20.774Z,25.55
2023-04-06T18:42:20.766Z,25.53
2023-04-06T18:44:20.877Z,25.56
2023-04-06T18:46:20.967Z,25.55
2023-04-06T18:48:20.761Z,25.53
2023-04-06T18:50:20.808Z,25.52
2023-04-06T18:52:20.773Z,25.52
2023-04-06T18:54:20.804Z,25.64
2023-04-06T18:56:20.723Z,25.52
2023-04-06T18:58:20.820Z,25.64
2023-04-06T19:00:20.881Z,25.52
2023-04-06T19:02:20.947Z,25.55
2023-04-06T19:04:21.043Z,25.58
2023-04-06T19:06:20.829Z,25.58
2023-04-06T19:08:20.798Z,25.57
2023-04-06T19:10:20.718Z,25.54
2023-04-06T19:12:20.747Z,25.52
2023-04-06T19:14:20.833Z,25.52
2023-04-06T19:16:20.907Z,25.54
2023-04-06T19:18:20.821Z,25.61
2023-04-06T19:20:20.844Z,25.60
2023-04-06T19:22:20.860Z,25.60
2023-04-06T19:24:20.881Z,25.59
2023-04-06T19:26:20.861Z,25.60
2023-04-06T19:28:20.821Z,25.60
2023-04-06T19:30:20.923Z,25.57
2023-04-06T19:32:21.046Z,25.61
2023-04-06T19:34:20.928Z,25.61
2023-04-06T19:36:20.951Z,25.60
2023-04-06T19:38:20.902Z,25.58
2023-04-06T19:40:20.820Z,25.60
2023-04-06T19:42:20.726Z,25.60
2023-04-06T19:44:20.924Z,25.62
2023-04-06T19:46:20.861Z,25.61
2023-04-06T19:48:20.841Z,25.62
2023-04-06T19:50:20.900Z,25.57
2023-04-06T19:52:20.944Z,25.61
2023-04-06T19:54:20.962Z,25.61
2023-04-06T19:56:21.024Z,25.61
2023-04-06T19:58:20.838Z,25.57
2023-04-06T20:00:20.849Z,25.56
2023-04-06T20:02:21.197Z,25.64
2023-04-06T20:04:20.966Z,25.71
2023-04-06T20:06:20.937Z,25.61
2023-04-06T20:08:20.827Z,25.61
2023-04-06T20:10:20.900Z,25.53
2023-04-06T20:12:20.946Z,25.63
2023-04-06T20:14:21.317Z,25.60
2023-04-06T20:16:21.038Z,25.58
2023-04-06T20:18:20.907Z,25.58
2023-04-06T20:20:21.179Z,25.60
2023-04-06T20:22:21.952Z,25.60
2023-04-06T20:24:21.309Z,25.58
2023-04-06T20:26:21.020Z,25.72
2023-04-06T20:28:21.895Z,25.56
2023-04-06T20:30:20.968Z,25.54
2023-04-06T20:32:21.278Z,25.65
2023-04-06T20:34:21.016Z,25.58
2023-04-06T20:36:22.156Z,25.58
2023-04-06T20:38:32.388Z,25.50
2023-04-06T20:40:20.917Z,25.32
2023-04-06T20:42:21.019Z,25.60
2023-04-06T20:44:21.274Z,25.58
2023-04-06T20:46:21.089Z,25.58
2023-04-06T20:48:20.945Z,25.57
2023-04-06T20:50:20.965Z,25.63
2023-04-06T20:52:21.066Z,25.56
2023-04-06T20:54:20.994Z,25.60
2023-04-06T20:56:20.936Z,25.70
2023-04-06T20:58:21.029Z,25.53
2023-04-06T21:00:20.921Z,25.60
2023-04-06T21:02:22.177Z,25.52
2023-04-06T21:04:21.491Z,25.56
2023-04-06T21:06:20.953Z,25.58
2023-04-06T21:08:20.969Z,25.53
2023-04-06T21:10:20.959Z,25.52
2023-04-06T21:12:20.902Z,25.56
2023-04-06T21:14:21.181Z,25.54
2023-04-06T21:16:21.033Z,25.56
2023-04-06T21:18:22.088Z,25.50
2023-04-06T21:20:21.116Z,25.52
2023-04-06T21:22:20.992Z,25.51
2023-04-06T21:24:21.004Z,25.54
2023-04-06T21:26:21.096Z,25.52
2023-04-06T21:28:21.009Z,25.52
2023-04-06T21:30:20.830Z,25.61
2023-04-06T21:32:20.909Z,25.52
2023-04-06T21:34:21.352Z,25.52
2023-04-06T21:36:20.964Z,25.53
2023-04-06T21:38:21.023Z,25.52
2023-04-06T21:40:20.965Z,25.60
2023-04-06T21:42:21.004Z,25.52
2023-04-06T21:44:21.386Z,25.26
2023-04-06T21:46:21.037Z,25.53
2023-04-06T21:48:21.020Z,25.56
2023-04-06T21:50:21.050Z,25.52
2023-04-06T21:52:20.955Z,25.53
2023-04-06T21:54:21.236Z,25.52
2023-04-06T21:56:21.024Z,25.56
2023-04-06T21:58:21.016Z,25.52
2023-04-06T22:00:21.000Z,25.52
2023-04-06T22:02:21.190Z,25.51
2023-04-06T22:04:21.694Z,25.58
2023-04-06T22:06:20.977Z,25.53
2023-04-06T22:08:33.301Z,25.65
2023-04-06T22:10:21.055Z,25.46
2023-04-06T22:12:21.094Z,25.51
2023-04-06T22:14:21.510Z,25.52
2023-04-06T22:16:21.087Z,25.52
2023-04-06T22:18:21.033Z,25.52
2023-04-06T22:20:21.049Z,25.80
2023-04-06T22:22:21.013Z,25.52
2023-04-06T22:24:21.010Z,25.52
2023-04-06T22:26:21.107Z,25.52
2023-04-06T22:28:21.019Z,25.52
2023-04-06T22:30:20.994Z,25.52
2023-04-06T22:32:21.150Z,25.52
2023-04-06T22:34:21.050Z,25.52
2023-04-06T22:36:20.964Z,25.49
2023-04-06T22:38:20.991Z,25.52
2023-04-06T22:40:21.110Z,25.52
2023-04-06T22:42:21.031Z,25.52
2023-04-06T22:44:20.998Z,25.52
2023-04-06T22:46:21.095Z,25.52
2023-04-06T22:48:21.123Z,25.50
2023-04-06T22:50:21.058Z,25.49
2023-04-06T22:52:21.182Z,25.49
2023-04-06T22:54:21.269Z,25.52
2023-04-06T22:56:21.048Z,25.52
2023-04-06T22:58:21.091Z,25.52
2023-04-06T23:00:21.085Z,25.51
2023-04-06T23:02:21.222Z,25.54
2023-04-06T23:04:21.562Z,25.52
2023-04-06T23:06:21.141Z,25.49
2023-04-06T23:08:21.112Z,25.52
2023-04-06T23:10:20.984Z,25.47
2023-04-06T23:12:21.099Z,25.51
2023-04-06T23:14:21.148Z,25.46
2023-04-06T23:16:21.153Z,25.51
2023-04-06T23:18:21.053Z,25.51
2023-04-06T23:20:21.142Z,25.52
2023-04-06T23:22:21.114Z,25.47
2023-04-06T23:24:21.209Z,25.46
2023-04-06T23:26:21.117Z,25.52
2023-04-06T23:28:21.109Z,25.54
2023-04-06T23:30:21.198Z,25.40
2023-04-06T23:32:21.084Z,25.50
2023-04-06T23:34:21.156Z,25.52
2023-04-06T23:36:21.078Z,25.47
2023-04-06T23:38:21.151Z,25.47
2023-04-06T23:40:21.096Z,25.49
2023-04-06T23:42:21.103Z,25.39
2023-04-06T23:44:21.239Z,25.51
2023-04-06T23:46:21.139Z,25.47
2023-04-06T23:48:21.157Z,25.52
2023-04-06T23:50:21.087Z,25.48
2023-04-06T23:52:21.188Z,25.44
2023-04-06T23:54:21.054Z,25.44
2023-04-06T23:56:21.201Z,25.52
2023-04-06T23:58:21.177Z,25.47
